createdAt,value
2017-12-23T00:02:11.442Z,3.70
2017-12-23T00:04:39.864Z,4.60
2017-12-23T00:07:08.170Z,5.27
2017-12-23T00:09:36.519Z,5.30
2017-12-23T00:12:04.768Z,4.93
2017-12-23T00:14:33.052Z,5.60
2017-12-23T00:17:01.305Z,5.20
2017-12-23T00:19:29.567Z,4.40
2017-12-23T00:21:57.853Z,4.30
2017-12-23T00:24:26.225Z,3.93
2017-12-23T00:26:55.351Z,5.17
2017-12-23T00:29:23.637Z,5.23
2017-12-23T00:31:51.911Z,4.53
2017-12-23T00:34:31.009Z,4.97
2017-12-23T00:36:59.275Z,4.03
2017-12-23T00:39:27.528Z,5.13
2017-12-23T00:41:57.300Z,3.70
2017-12-23T00:44:25.564Z,3.83
2017-12-23T00:46:53.823Z,5.67
2017-12-23T00:49:22.137Z,5.47
2017-12-23T00:51:50.389Z,4.47
2017-12-23T00:54:18.711Z,5.10
2017-12-23T00:56:46.962Z,5.37
2017-12-23T00:59:15.232Z,6.33
2017-12-23T01:01:43.487Z,5.07
2017-12-23T01:04:12.513Z,5.60
2017-12-23T01:06:40.815Z,5.20
2017-12-23T01:09:09.076Z,5.33
2017-12-23T01:11:37.334Z,4.10
2017-12-23T01:14:05.655Z,5.57
2017-12-23T01:16:33.892Z,5.60
2017-12-23T01:19:02.193Z,4.53
2017-12-23T01:21:30.459Z,4.63
2017-12-23T01:23:58.773Z,5.17
2017-12-23T01:26:27.865Z,4.70
2017-12-23T01:28:56.125Z,4.63
2017-12-23T01:31:24.396Z,4.50
2017-12-23T01:33:52.651Z,4.80
2017-12-23T01:36:20.946Z,4.20
2017-12-23T01:38:49.252Z,4.83
2017-12-23T01:41:17.547Z,3.73
2017-12-23T01:43:45.917Z,4.33
2017-12-23T01:46:14.208Z,5.20
2017-12-23T01:48:44.006Z,3.60
2017-12-23T01:51:12.281Z,4.70
2017-12-23T01:53:40.669Z,3.93
2017-12-23T01:56:08.919Z,3.97
2017-12-23T01:58:37.180Z,5.10
2017-12-23T02:01:05.465Z,3.93
2017-12-23T02:03:33.717Z,5.43
2017-12-23T02:06:01.992Z,4.80
2017-12-23T02:08:30.261Z,3.77
2017-12-23T02:10:59.347Z,4.73
2017-12-23T02:13:28.396Z,4.80
2017-12-23T02:15:56.660Z,4.50
2017-12-23T02:18:24.967Z,3.83
2017-12-23T02:20:53.216Z,5.13
2017-12-23T02:23:21.511Z,4.57
2017-12-23T02:25:49.901Z,4.67
2017-12-23T02:28:18.163Z,4.70
2017-12-23T02:30:46.457Z,6.30
2017-12-23T02:33:14.692Z,4.43
2017-12-23T02:35:42.989Z,4.80
2017-12-23T02:38:11.236Z,4.70
2017-12-23T02:40:39.519Z,5.47
2017-12-23T02:43:08.021Z,5.30
2017-12-23T02:45:37.029Z,6.07
2017-12-23T02:48:05.315Z,6.70
2017-12-23T02:50:33.601Z,5.90
2017-12-23T02:53:01.856Z,6.23
2017-12-23T02:55:30.116Z,5.93
2017-12-23T02:57:58.390Z,6.80
2017-12-23T03:00:26.644Z,5.93
2017-12-23T03:02:55.802Z,6.23
2017-12-23T03:05:24.054Z,5.83
2017-12-23T03:07:52.353Z,5.27
2017-12-23T03:10:20.617Z,6.27
2017-12-23T03:12:48.912Z,7.00
2017-12-23T03:15:17.204Z,6.73
2017-12-23T03:17:46.219Z,6.73
2017-12-23T03:20:15.377Z,5.80
2017-12-23T03:22:43.652Z,6.10
2017-12-23T03:25:12.032Z,6.17
2017-12-23T03:27:40.299Z,6.40
2017-12-23T03:30:08.561Z,6.60
2017-12-23T03:32:36.857Z,6.77
2017-12-23T03:35:05.139Z,7.30
2017-12-23T03:37:33.405Z,5.63
2017-12-23T03:40:01.692Z,6.97
2017-12-23T03:42:29.968Z,6.77
2017-12-23T03:44:58.233Z,5.73
2017-12-23T03:47:27.364Z,6.97
2017-12-23T03:49:56.407Z,6.70
2017-12-23T03:52:24.669Z,5.90
2017-12-23T03:54:52.934Z,4.93
2017-12-23T03:57:21.213Z,6.63
2017-12-23T03:59:49.503Z,7.00
2017-12-23T04:02:18.432Z,6.43
2017-12-23T04:04:46.690Z,5.70
2017-12-23T04:07:14.966Z,5.80
2017-12-23T04:09:43.220Z,5.43
2017-12-23T04:12:11.508Z,5.90
2017-12-23T04:14:39.824Z,6.77
2017-12-23T04:17:08.114Z,5.13
2017-12-23T04:19:37.128Z,6.50
2017-12-23T04:22:06.284Z,7.80
2017-12-23T04:24:34.544Z,6.63
2017-12-23T04:27:02.808Z,6.53
2017-12-23T04:29:31.089Z,5.83
2017-12-23T04:31:59.464Z,5.63
2017-12-23T04:34:27.743Z,6.63
2017-12-23T04:36:55.995Z,6.70
2017-12-23T04:39:24.423Z,6.13
2017-12-23T04:41:52.679Z,6.20
2017-12-23T04:44:20.948Z,5.20
2017-12-23T04:46:49.228Z,5.53
2017-12-23T04:49:17.480Z,6.20
2017-12-23T04:51:45.768Z,5.50
2017-12-23T04:54:14.084Z,5.70
2017-12-23T04:56:42.359Z,7.07
2017-12-23T04:59:10.849Z,7.00
2017-12-23T05:01:40.626Z,6.20
2017-12-23T05:04:08.899Z,6.40
2017-12-23T05:06:37.158Z,8.30
2017-12-23T05:09:05.486Z,5.83
2017-12-23T05:11:33.737Z,6.47
2017-12-23T05:14:01.988Z,6.70
2017-12-23T05:16:30.263Z,5.53
2017-12-23T05:18:58.524Z,5.70
2017-12-23T05:21:27.563Z,5.17
2017-12-23T05:23:55.874Z,6.10
2017-12-23T05:26:24.240Z,5.90
2017-12-23T05:28:52.492Z,5.73
2017-12-23T05:31:20.743Z,6.00
2017-12-23T05:33:49.020Z,6.70
2017-12-23T05:36:17.279Z,6.87
2017-12-23T05:38:46.344Z,5.47
2017-12-23T05:41:14.608Z,6.80
2017-12-23T05:43:42.873Z,5.80
2017-12-23T05:46:11.292Z,5.07
2017-12-23T05:48:39.536Z,4.50
2017-12-23T05:51:07.918Z,5.40
2017-12-23T05:53:36.177Z,6.73
2017-12-23T05:56:04.450Z,6.70
2017-12-23T05:58:32.713Z,5.47
2017-12-23T06:01:00.975Z,6.67
2017-12-23T06:03:30.028Z,6.37
2017-12-23T06:05:58.293Z,6.17
2017-12-23T06:08:26.580Z,5.63
2017-12-23T06:10:54.823Z,6.80
2017-12-23T06:13:23.103Z,6.80
2017-12-23T06:15:51.376Z,6.80
2017-12-23T06:18:19.635Z,6.27
2017-12-23T06:20:47.964Z,7.80
2017-12-23T06:23:16.212Z,6.40
2017-12-23T06:25:44.497Z,7.30
2017-12-23T06:28:12.945Z,7.20
2017-12-23T06:30:41.384Z,7.60
2017-12-23T06:33:09.659Z,6.27
2017-12-23T06:35:37.911Z,8.00
2017-12-23T06:38:06.194Z,8.70
2017-12-23T06:40:34.533Z,8.37
2017-12-23T06:43:02.860Z,7.50
2017-12-23T06:45:31.120Z,8.90
2017-12-23T06:47:59.422Z,7.90
2017-12-23T06:50:27.679Z,8.37
2017-12-23T06:52:55.936Z,9.70
2017-12-23T06:55:24.233Z,10.40
2017-12-23T06:57:52.532Z,7.40
2017-12-23T07:00:20.792Z,8.70
2017-12-23T07:02:49.059Z,9.20
2017-12-23T07:05:17.338Z,9.40
2017-12-23T07:07:45.641Z,9.60
2017-12-23T07:10:13.917Z,10.27
2017-12-23T07:12:42.296Z,9.77
2017-12-23T07:15:10.575Z,10.20
2017-12-23T07:17:39.054Z,9.97
2017-12-23T07:20:07.299Z,11.80
2017-12-23T07:22:35.588Z,9.23
2017-12-23T07:25:03.839Z,10.20
2017-12-23T07:27:32.103Z,9.63
2017-12-23T07:30:01.162Z,12.20
2017-12-23T07:32:29.428Z,9.40
2017-12-23T07:34:57.699Z,10.67
2017-12-23T07:37:25.960Z,9.50
2017-12-23T07:39:54.273Z,12.10
2017-12-23T07:42:22.748Z,8.63
2017-12-23T07:44:51.128Z,12.47
2017-12-23T07:47:19.404Z,10.63
2017-12-23T07:49:47.673Z,10.10
2017-12-23T07:52:15.949Z,11.77
2017-12-23T07:54:44.236Z,11.47
2017-12-23T07:57:12.496Z,9.87
2017-12-23T07:59:40.760Z,10.77
2017-12-23T08:02:09.074Z,10.33
2017-12-23T08:04:37.323Z,10.87
2017-12-23T08:07:05.581Z,11.50
2017-12-23T08:09:33.893Z,9.10
2017-12-23T08:12:02.162Z,8.73
2017-12-23T08:14:30.444Z,10.10
2017-12-23T08:16:58.834Z,9.07
2017-12-23T08:19:27.211Z,8.83
2017-12-23T08:21:55.506Z,9.70
2017-12-23T08:24:23.741Z,9.93
2017-12-23T08:26:52.016Z,10.60
2017-12-23T08:29:20.267Z,10.40
2017-12-23T08:31:48.540Z,8.40
2017-12-23T08:34:17.580Z,10.73
2017-12-23T08:36:45.870Z,9.40
2017-12-23T08:39:14.115Z,9.23
2017-12-23T08:41:42.376Z,8.73
2017-12-23T08:44:10.652Z,9.53
2017-12-23T08:46:38.915Z,9.70
2017-12-23T08:49:07.964Z,10.30
2017-12-23T08:51:36.228Z,8.73
2017-12-23T08:54:04.499Z,10.00
2017-12-23T08:56:32.808Z,9.17
2017-12-23T08:59:01.184Z,9.40
2017-12-23T09:01:29.451Z,8.40
2017-12-23T09:03:57.843Z,8.80
2017-12-23T09:06:26.115Z,9.40
2017-12-23T09:08:54.386Z,9.80
2017-12-23T09:11:22.660Z,9.37
2017-12-23T09:13:50.932Z,10.30
2017-12-23T09:16:19.228Z,12.00
2017-12-23T09:18:47.498Z,10.03
2017-12-23T09:21:15.766Z,9.60
2017-12-23T09:23:44.161Z,9.40
2017-12-23T09:26:12.413Z,8.90
2017-12-23T09:28:40.694Z,9.27
2017-12-23T09:31:09.037Z,10.63
2017-12-23T09:33:38.089Z,10.20
2017-12-23T09:36:06.572Z,9.73
2017-12-23T09:38:34.953Z,8.80
2017-12-23T09:41:03.230Z,9.90
2017-12-23T09:43:31.479Z,9.43
2017-12-23T09:45:59.755Z,9.27
2017-12-23T09:48:28.060Z,9.30
2017-12-23T09:50:56.439Z,8.90
2017-12-23T09:53:24.714Z,8.10
2017-12-23T09:55:52.959Z,8.20
2017-12-23T09:58:21.267Z,6.83
2017-12-23T10:00:49.521Z,7.63
2017-12-23T10:03:17.801Z,6.87
2017-12-23T10:05:46.067Z,8.20
2017-12-23T10:08:14.325Z,6.33
2017-12-23T10:10:42.619Z,7.20
2017-12-23T10:13:11.036Z,7.57
2017-12-23T10:15:39.317Z,6.20
2017-12-23T10:18:07.586Z,7.27
2017-12-23T10:20:35.966Z,7.80
2017-12-23T10:23:04.233Z,7.03
2017-12-23T10:25:32.492Z,7.03
2017-12-23T10:28:01.010Z,7.97
2017-12-23T10:30:29.371Z,5.87
2017-12-23T10:32:57.633Z,6.50
2017-12-23T10:35:25.916Z,5.20
2017-12-23T10:37:54.212Z,6.17
2017-12-23T10:40:22.695Z,4.53
2017-12-23T10:42:51.761Z,4.60
2017-12-23T10:45:20.031Z,5.70
2017-12-23T10:47:48.336Z,5.33
2017-12-23T10:50:16.583Z,4.23
2017-12-23T10:52:44.854Z,3.90
2017-12-23T10:55:13.901Z,5.00
2017-12-23T10:57:42.273Z,4.47
2017-12-23T11:00:10.754Z,4.00
2017-12-23T11:02:39.016Z,4.20
2017-12-23T11:05:07.276Z,4.10
2017-12-23T11:07:35.558Z,3.17
2017-12-23T11:10:03.808Z,4.43
2017-12-23T11:12:32.825Z,3.10
2017-12-23T11:15:01.096Z,3.57
2017-12-23T11:17:29.400Z,3.80
2017-12-23T11:19:57.687Z,3.23
2017-12-23T11:22:25.949Z,3.50
2017-12-23T11:24:54.237Z,3.70
2017-12-23T11:27:22.505Z,2.30
2017-12-23T11:29:50.756Z,2.50
2017-12-23T11:32:19.038Z,2.80
2017-12-23T11:34:47.300Z,2.30
2017-12-23T11:37:16.373Z,2.47
2017-12-23T11:39:44.640Z,2.63
2017-12-23T11:42:13.707Z,2.03
2017-12-23T11:44:41.982Z,1.60
2017-12-23T11:47:10.247Z,2.20
2017-12-23T11:49:38.511Z,2.60
2017-12-23T11:52:06.789Z,2.30
2017-12-23T11:54:35.102Z,2.70
2017-12-23T11:57:03.352Z,2.43
2017-12-23T11:59:31.760Z,2.83
2017-12-23T12:02:00.139Z,2.17
2017-12-23T12:04:28.392Z,2.20
2017-12-23T12:06:56.760Z,1.97
2017-12-23T12:09:25.022Z,2.63
2017-12-23T12:11:53.297Z,2.50
2017-12-23T12:14:22.342Z,2.13
2017-12-23T12:16:50.600Z,1.57
2017-12-23T12:19:18.856Z,2.40
2017-12-23T12:21:47.173Z,2.10
2017-12-23T12:24:15.449Z,2.07
2017-12-23T12:26:43.706Z,2.63
2017-12-23T12:29:11.984Z,2.20
2017-12-23T12:31:40.236Z,2.47
2017-12-23T12:34:08.856Z,2.83
2017-12-23T12:36:37.103Z,2.30
2017-12-23T12:39:05.413Z,2.40
2017-12-23T12:41:33.683Z,2.17
2017-12-23T12:44:01.935Z,2.40
2017-12-23T12:46:30.205Z,2.20
2017-12-23T12:48:58.449Z,2.70
2017-12-23T12:51:26.731Z,2.10
2017-12-23T12:53:55.083Z,2.90
2017-12-23T12:56:23.356Z,3.03
2017-12-23T12:58:51.641Z,2.30
2017-12-23T13:01:19.968Z,2.60
2017-12-23T13:03:48.285Z,2.03
2017-12-23T13:06:16.555Z,3.10
2017-12-23T13:08:44.842Z,3.00
2017-12-23T13:11:13.089Z,2.50
2017-12-23T13:13:41.362Z,2.43
2017-12-23T13:16:09.608Z,3.37
2017-12-23T13:18:38.676Z,2.53
2017-12-23T13:21:06.913Z,3.10
2017-12-23T13:23:35.163Z,4.03
2017-12-23T13:26:04.214Z,3.13
2017-12-23T13:28:32.468Z,4.03
2017-12-23T13:31:00.763Z,3.77
2017-12-23T13:33:29.020Z,3.53
2017-12-23T13:35:57.322Z,2.90
2017-12-23T13:38:25.592Z,3.80
2017-12-23T13:40:53.840Z,4.67
2017-12-23T13:43:22.117Z,3.73
2017-12-23T13:45:50.376Z,3.67
2017-12-23T13:48:19.407Z,4.10
2017-12-23T13:50:47.665Z,3.00
2017-12-23T13:53:15.979Z,3.80
2017-12-23T13:55:44.236Z,3.60
2017-12-23T13:58:12.484Z,4.00
2017-12-23T14:00:40.968Z,3.93
2017-12-23T14:03:10.705Z,3.40
2017-12-23T14:05:39.008Z,4.10
2017-12-23T14:08:07.285Z,4.57
2017-12-23T14:10:35.568Z,3.03
2017-12-23T14:13:05.354Z,3.37
2017-12-23T14:15:33.659Z,3.40
2017-12-23T14:18:01.956Z,3.10
2017-12-23T14:20:31.030Z,3.10
2017-12-23T14:22:59.408Z,4.57
2017-12-23T14:25:27.684Z,4.13
2017-12-23T14:27:56.002Z,5.13
2017-12-23T14:30:25.027Z,4.37
2017-12-23T14:32:53.333Z,3.70
2017-12-23T14:35:21.607Z,4.30
2017-12-23T14:37:49.881Z,4.03
2017-12-23T14:40:18.155Z,5.50
2017-12-23T14:42:46.444Z,4.17
2017-12-23T14:45:14.816Z,4.40
2017-12-23T14:47:43.056Z,4.67
2017-12-23T14:50:11.317Z,4.70
2017-12-23T14:52:40.436Z,4.70
2017-12-23T14:55:08.703Z,4.70
2017-12-23T14:57:36.994Z,5.07
2017-12-23T15:00:05.263Z,4.20
2017-12-23T15:02:34.371Z,5.37
2017-12-23T15:05:02.667Z,6.00
2017-12-23T15:07:30.919Z,6.47
2017-12-23T15:09:59.187Z,6.33
2017-12-23T15:12:27.454Z,6.20
2017-12-23T15:14:55.741Z,7.80
2017-12-23T15:17:23.995Z,8.50
2017-12-23T15:19:53.043Z,6.77
2017-12-23T15:22:21.321Z,8.23
2017-12-23T15:24:49.579Z,7.10
2017-12-23T15:27:17.917Z,8.40
2017-12-23T15:29:46.975Z,8.10
2017-12-23T15:32:15.272Z,8.50
2017-12-23T15:34:43.544Z,7.70
2017-12-23T15:37:11.900Z,8.17
2017-12-23T15:39:40.418Z,8.80
2017-12-23T15:42:08.691Z,7.80
2017-12-23T15:44:37.254Z,7.93
2017-12-23T15:47:05.501Z,9.43
2017-12-23T15:49:33.820Z,9.40
2017-12-23T15:52:02.119Z,9.33
2017-12-23T15:54:31.143Z,9.50
2017-12-23T15:56:59.425Z,8.93
2017-12-23T15:59:27.684Z,9.33
2017-12-23T16:01:55.968Z,10.73
2017-12-23T16:04:24.273Z,10.93
2017-12-23T16:06:52.547Z,11.60
2017-12-23T16:09:20.813Z,11.30
2017-12-23T16:11:49.072Z,12.20
2017-12-23T16:14:17.366Z,12.47
2017-12-23T16:16:45.629Z,12.80
2017-12-23T16:19:14.053Z,12.90
2017-12-23T16:21:42.299Z,10.60
2017-12-23T16:24:10.605Z,12.40
2017-12-23T16:26:38.865Z,13.60
2017-12-23T16:29:07.123Z,12.87
2017-12-23T16:31:36.125Z,13.13
2017-12-23T16:34:04.385Z,11.00
2017-12-23T16:36:32.708Z,11.43
2017-12-23T16:39:00.992Z,11.73
2017-12-23T16:41:30.792Z,11.80
2017-12-23T16:43:59.086Z,13.17
2017-12-23T16:46:28.119Z,13.13
2017-12-23T16:48:56.465Z,16.37
2017-12-23T16:51:24.828Z,13.27
2017-12-23T16:53:53.215Z,14.77
2017-12-23T16:56:21.465Z,14.00
2017-12-23T16:58:49.760Z,13.83
2017-12-23T17:01:18.037Z,13.57
2017-12-23T17:03:46.296Z,13.47
2017-12-23T17:06:14.573Z,14.43
2017-12-23T17:08:42.977Z,16.10
2017-12-23T17:11:11.266Z,13.73
2017-12-23T17:13:39.526Z,17.87
2017-12-23T17:16:07.790Z,16.00
2017-12-23T17:18:36.120Z,18.13
2017-12-23T17:21:04.463Z,17.23
2017-12-23T17:23:32.847Z,19.23
2017-12-23T17:26:01.138Z,17.50
2017-12-23T17:31:36.480Z,18.10
2017-12-23T17:34:04.886Z,18.93
2017-12-23T17:36:33.273Z,17.80
2017-12-23T17:39:02.294Z,16.40
2017-12-23T17:41:30.603Z,18.10
2017-12-23T17:43:58.855Z,17.83
2017-12-23T17:46:27.146Z,19.30
2017-12-23T17:48:55.454Z,16.03
2017-12-23T17:51:23.839Z,17.00
2017-12-23T17:53:52.112Z,17.47
2017-12-23T17:56:21.163Z,16.73
2017-12-23T17:58:49.498Z,18.00
2017-12-23T18:01:17.762Z,15.77
2017-12-23T18:03:46.060Z,15.67
2017-12-23T18:06:15.130Z,15.53
2017-12-23T18:08:45.039Z,16.77
2017-12-23T18:11:13.316Z,14.67
2017-12-23T18:13:41.812Z,18.27
2017-12-23T18:16:10.117Z,16.07
2017-12-23T18:18:39.153Z,20.73
2017-12-23T18:21:07.453Z,17.10
2017-12-23T18:23:35.728Z,17.23
2017-12-23T18:26:04.008Z,17.00
2017-12-23T18:28:33.059Z,16.07
2017-12-23T18:31:01.394Z,16.00
2017-12-23T18:33:29.644Z,16.10
2017-12-23T18:35:57.944Z,15.90
2017-12-23T18:38:26.472Z,17.07
2017-12-23T18:40:54.683Z,15.73
2017-12-23T18:43:23.173Z,17.20
2017-12-23T18:45:51.424Z,15.70
2017-12-23T18:48:19.740Z,15.50
2017-12-23T18:50:48.763Z,16.40
2017-12-23T18:53:17.068Z,15.47
2017-12-23T18:55:45.343Z,14.97
2017-12-23T18:58:13.760Z,14.07
2017-12-23T19:00:42.122Z,14.30
2017-12-23T19:03:10.384Z,14.93
2017-12-23T19:05:38.673Z,16.57
2017-12-23T19:08:06.927Z,15.03
2017-12-23T19:10:35.201Z,15.60
2017-12-23T19:13:03.524Z,15.47
2017-12-23T19:15:32.606Z,15.40
2017-12-23T19:18:00.880Z,14.13
2017-12-23T19:20:29.148Z,13.03
2017-12-23T19:22:57.429Z,13.70
2017-12-23T19:25:25.734Z,15.77
2017-12-23T19:27:54.121Z,16.73
2017-12-23T19:30:22.486Z,15.10
2017-12-23T19:32:50.940Z,14.30
2017-12-23T19:35:19.246Z,14.97
2017-12-23T19:37:47.511Z,14.40
2017-12-23T19:40:15.910Z,12.87
2017-12-23T19:42:45.020Z,14.30
2017-12-23T19:45:13.314Z,13.90
2017-12-23T19:47:42.349Z,14.00
2017-12-23T19:50:10.620Z,12.40
2017-12-23T19:52:38.909Z,12.73
2017-12-23T19:55:07.175Z,13.23
2017-12-23T19:57:35.460Z,12.63
2017-12-23T20:00:03.770Z,13.63
2017-12-23T20:02:32.030Z,12.10
2017-12-23T20:05:00.312Z,12.53
2017-12-23T20:07:28.703Z,12.67
2017-12-23T20:09:57.080Z,11.77
2017-12-23T20:12:26.176Z,12.83
2017-12-23T20:14:54.476Z,11.50
2017-12-23T20:17:23.544Z,13.17
2017-12-23T20:19:52.628Z,9.93
2017-12-23T20:22:20.923Z,12.67
2017-12-23T20:24:49.216Z,10.23
2017-12-23T20:27:17.509Z,12.37
2017-12-23T20:29:46.549Z,13.17
2017-12-23T20:32:15.463Z,11.97
2017-12-23T20:34:44.499Z,11.07
2017-12-23T20:37:12.830Z,13.13
2017-12-23T20:39:41.121Z,11.77
2017-12-23T20:42:09.389Z,11.40
2017-12-23T20:44:37.689Z,11.37
2017-12-23T20:47:06.733Z,10.57
2017-12-23T20:49:35.041Z,10.27
2017-12-23T20:52:04.838Z,9.40
2017-12-23T20:54:33.206Z,10.97
2017-12-23T20:57:01.604Z,11.90
2017-12-23T20:59:29.862Z,11.00
2017-12-23T21:01:58.148Z,10.43
2017-12-23T21:04:26.417Z,9.67
2017-12-23T21:06:54.692Z,10.00
2017-12-23T21:09:23.003Z,10.10
2017-12-23T21:11:52.109Z,11.33
2017-12-23T21:14:20.468Z,9.90
2017-12-23T21:16:48.729Z,9.93
2017-12-23T21:19:17.121Z,9.70
2017-12-23T21:21:45.391Z,10.10
2017-12-23T21:24:13.649Z,10.30
2017-12-23T21:26:41.923Z,8.70
2017-12-23T21:29:10.189Z,9.10
2017-12-23T21:31:38.476Z,9.60
2017-12-23T21:34:06.743Z,10.40
2017-12-23T21:36:35.053Z,8.23
2017-12-23T21:39:03.323Z,9.30
2017-12-23T21:41:31.583Z,8.93
2017-12-23T21:43:59.868Z,9.60
2017-12-23T21:46:28.136Z,10.10
2017-12-23T21:48:56.433Z,8.73
2017-12-23T21:51:24.698Z,9.90
2017-12-23T21:53:52.988Z,9.00
2017-12-23T21:56:21.244Z,8.90
2017-12-23T21:58:49.499Z,9.50
2017-12-23T22:01:18.595Z,9.43
2017-12-23T22:03:47.646Z,9.33
2017-12-23T22:06:15.934Z,8.40
2017-12-23T22:08:45.696Z,9.57
2017-12-23T22:11:14.004Z,11.20
2017-12-23T22:13:42.270Z,10.67
2017-12-23T22:16:10.546Z,8.67
2017-12-23T22:18:38.856Z,10.50
2017-12-23T22:21:07.255Z,9.00
2017-12-23T22:23:36.311Z,9.90
2017-12-23T22:26:04.610Z,9.07
2017-12-23T22:28:33.672Z,8.47
2017-12-23T22:31:01.944Z,9.77
2017-12-23T22:33:30.194Z,10.43
2017-12-23T22:35:58.503Z,9.53
2017-12-23T22:38:26.757Z,8.63
2017-12-23T22:40:55.177Z,11.00
2017-12-23T22:43:23.450Z,9.37
2017-12-23T22:45:51.757Z,10.07
2017-12-23T22:48:20.008Z,9.63
2017-12-23T22:50:48.260Z,10.30
2017-12-23T22:53:16.614Z,10.27
2017-12-23T22:55:45.661Z,11.30
2017-12-23T22:58:14.048Z,10.50
2017-12-23T23:00:47.953Z,8.40
2017-12-23T23:03:16.265Z,12.03
2017-12-23T23:05:45.310Z,9.60
2017-12-23T23:08:13.582Z,11.03
2017-12-23T23:10:41.877Z,10.90
2017-12-23T23:13:10.256Z,11.83
2017-12-23T23:15:38.525Z,9.97
2017-12-23T23:18:06.807Z,12.03
2017-12-23T23:20:35.175Z,11.70
2017-12-23T23:23:03.536Z,11.27
2017-12-23T23:25:31.846Z,10.73
2017-12-23T23:28:00.326Z,12.90
2017-12-23T23:30:28.597Z,12.37
2017-12-23T23:32:56.885Z,11.37
2017-12-23T23:35:25.289Z,10.30
2017-12-23T23:37:53.645Z,12.50
2017-12-23T23:40:21.896Z,11.80
2017-12-23T23:42:50.173Z,11.37
2017-12-23T23:45:18.450Z,11.70
2017-12-23T23:47:46.727Z,10.37
2017-12-23T23:50:15.126Z,11.97
2017-12-23T23:52:43.385Z,11.20
2017-12-23T23:55:11.697Z,11.23
2017-12-23T23:57:40.780Z,11.83
